Time;durP1;ratioP1;P1;durP2;ratioP2;P2;SDS_P1;SDS_P2;PMS_P1;PMS_P2;Temp;Humidity;BMP_temperature;BMP_pressure;BME280_temperature;BME280_humidity;BME280_pressure;Samples;Min_cycle;Max_cycle;Signal;HPM_P1;HPM_P2
2021/08/02 00:02:05;;;;;;;14.40;13.10;;;;;;;27.52;46.53;94114.16;827573;71;32727;-75
2021/08/02 00:17:04;;;;;;;15.40;13.70;;;;;;;27.51;46.70;94115.31;828230;71;32110;-75
2021/08/02 00:31:47;;;;;;;16.77;13.60;;;;;;;27.31;47.16;94109.80;828361;71;30322;-75
2021/08/02 00:46:51;;;;;;;15.53;12.40;;;;;;;27.34;46.89;94101.76;828927;71;29683;-76
2021/08/02 01:01:56;;;;;;;12.37;11.13;;;;;;;27.34;46.39;94073.97;833951;71;33205;-76
2021/08/02 01:17:08;;;;;;;13.13;11.30;;;;;;;27.23;46.33;94043.14;820448;71;29672;-76
2021/08/02 01:32:00;;;;;;;15.13;11.43;;;;;;;27.17;46.15;94040.09;834657;71;32684;-76
2021/08/02 01:46:47;;;;;;;12.83;11.53;;;;;;;27.27;47.24;165862.72;828325;71;31744;-76
2021/08/02 02:02:03;;;;;;;14.90;11.13;;;;;;;27.35;46.33;94008.11;827561;71;32855;-76
2021/08/02 02:16:53;;;;;;;14.43;11.73;;;;;;;27.14;46.67;123554.15;827395;71;33050;-74
2021/08/02 02:31:44;;;;;;;12.00;10.80;;;;;;;;;;834355;71;29544;-75
2021/08/02 02:46:46;;;;;;;13.20;11.00;;;;;;;;;;828023;71;30281;-76
2021/08/02 03:02:13;;;;;;;21.00;11.40;;;;;;;;;;827451;71;32746;-77
2021/08/02 03:16:59;;;;;;;13.57;10.20;;;;;;;26.68;46.20;93996.46;834123;71;30496;-75
2021/08/02 03:32:01;;;;;;;15.43;10.20;;;;;;;26.76;46.31;94019.47;828471;71;29704;-76
2021/08/02 03:46:56;;;;;;;14.23;10.20;;;;;;;;;;828273;71;30118;-77
2021/08/02 04:01:55;;;;;;;17.30;12.43;;;;;;;;;;828305;71;29665;-74
2021/08/02 04:17:14;;;;;;;14.63;13.00;;;;;;;27.70;45.20;94018.20;826888;71;33703;-77
2021/08/02 04:32:04;;;;;;;15.27;12.57;;;;;;;26.88;46.93;94026.81;827402;71;32805;-77
2021/08/02 04:46:54;;;;;;;16.97;14.00;;;;;;;26.25;48.85;175553.72;833878;71;29714;-77
2021/08/02 05:01:59;;;;;;;20.73;12.53;;;;;;;26.18;48.44;94017.95;827969;71;30316;-74
2021/08/02 05:17:18;;;;;;;17.13;13.43;;;;;;;;;;827982;71;30119;-75
2021/08/02 05:32:07;;;;;;;18.90;13.83;;;;;;;;;;824018;71;32695;-76
2021/08/02 05:46:48;;;;;;;17.07;14.13;;;;;;;27.22;45.32;94086.61;808435;71;30625;-79
2021/08/02 06:01:53;;;;;;;17.93;14.30;;;;;;;27.88;44.13;94093.43;810971;71;31600;-77
2021/08/02 06:17:03;;;;;;;22.40;15.10;;;;;;;28.42;43.15;94096.02;822342;71;33127;-77
2021/08/02 06:31:55;;;;;;;15.00;13.50;;;;;;;29.31;41.33;94091.50;828818;71;30297;-76
2021/08/02 06:46:56;;;;;;;18.80;13.50;;;;;;;29.71;39.85;94097.61;828664;71;29867;-76
2021/08/02 07:01:42;;;;;;;15.63;13.10;;;;;;;30.43;38.43;94093.20;828231;71;29774;-76
2021/08/02 07:16:44;;;;;;;18.87;13.07;;;;;;;31.18;37.73;94087.00;828323;71;29863;-77
2021/08/02 07:17:48;;;;;;;15.43;13.13;;;;;;;31.21;37.56;94092.92;808549;73;27036;-76
2021/08/02 07:31:46;;;;;;;17.23;12.90;;;;;;;32.02;34.91;94085.52;828215;71;30157;-76
2021/08/02 07:47:09;;;;;;;18.80;12.63;;;;;;;32.58;33.45;94081.38;827491;71;32726;-77
2021/08/02 08:01:56;;;;;;;18.27;12.90;;;;;;;32.90;32.86;94072.09;818910;71;33165;-76
2021/08/02 08:16:38;;;;;;;18.57;12.00;;;;;;;33.55;32.43;94061.59;827771;71;29472;-76
2021/08/02 08:31:41;;;;;;;16.27;13.10;;;;;;;33.99;32.17;94046.49;817950;71;29488;-77
2021/08/02 08:46:47;;;;;;;15.10;11.93;;;;;;;34.53;30.71;94024.59;815103;71;32769;-75
2021/08/02 09:02:14;;;;;;;20.10;11.30;;;;;;;35.41;28.48;94004.02;823145;71;32790;-75
2021/08/02 09:17:00;;;;;;;16.30;7.70;;;;;;;36.85;23.73;94015.54;828128;71;30241;-76
2021/08/02 09:32:00;;;;;;;15.83;7.50;;;;;;;37.64;21.06;93972.39;834066;71;29473;-77
2021/08/02 09:47:08;;;;;;;10.37;6.50;;;;;;;38.40;19.89;93962.60;827710;71;32196;-77
2021/08/02 10:02:02;;;;;;;12.03;5.90;;;;;;;38.99;19.75;93980.06;833922;71;31680;-75
2021/08/02 10:17:04;;;;;;;7.87;5.47;;;;;;;39.31;19.11;93960.06;828478;71;31712;-78
2021/08/02 10:32:09;;;;;;;14.77;5.93;;;;;;;39.63;18.31;93954.66;817854;71;32905;-77
2021/08/02 10:47:11;;;;;;;11.50;5.00;;;;;;;39.89;16.44;93948.33;834766;71;32677;-77
2021/08/02 11:02:05;;;;;;;15.97;6.10;;;;;;;40.20;15.63;93939.81;833892;71;31717;-79
2021/08/02 11:16:58;;;;;;;13.53;5.73;;;;;;;40.01;15.68;93928.52;821395;71;33647;-79
2021/08/02 11:32:00;;;;;;;11.73;6.03;;;;;;;40.22;15.56;93916.70;818615;71;33386;-78
2021/08/02 11:46:50;;;;;;;16.87;6.60;;;;;;;40.03;15.22;93925.39;812047;71;29391;-77
2021/08/02 12:01:53;;;;;;;12.83;5.63;;;;;;;39.72;15.34;93928.23;807161;71;31112;-79
2021/08/02 12:16:46;;;;;;;13.00;8.90;;;;;;;39.63;16.36;93919.58;813515;71;28768;-81
2021/08/02 12:31:58;;;;;;;19.73;11.50;;;;;;;39.48;16.54;93916.25;811799;71;32455;-78
2021/08/02 12:46:44;;;;;;;25.23;21.43;;;;;;;39.36;16.53;93901.06;806138;71;30144;-79
2021/08/02 13:01:55;;;;;;;18.60;14.40;;;;;;;39.09;16.58;93891.41;817899;71;32304;-77
2021/08/02 13:16:46;;;;;;;19.43;7.80;;;;;;;38.53;17.28;93896.45;819330;71;33168;-76
2021/08/02 13:31:46;;;;;;;15.67;9.60;;;;;;;38.60;17.94;93889.89;817216;71;29380;-78
2021/08/02 13:46:39;;;;;;;16.13;8.57;;;;;;;38.38;17.26;93886.93;806455;71;30168;-79
2021/08/02 14:01:38;;;;;;;14.23;8.40;;;;;;;38.15;17.18;93888.71;817442;71;29787;-78
2021/08/02 14:16:57;;;;;;;17.67;9.10;;;;;;;38.16;17.36;93876.50;833963;71;30739;-76
2021/08/02 14:31:47;;;;;;;13.87;10.27;;;;;;;38.02;17.45;93861.03;828271;71;30734;-76
2021/08/02 14:46:54;;;;;;;18.23;10.73;;;;;;;37.86;17.68;93850.02;829263;71;33116;-77
2021/08/02 15:02:13;;;;;;;14.30;9.20;;;;;;;37.57;16.31;93849.53;815840;71;32295;-78
2021/08/02 15:17:05;;;;;;;17.17;15.50;;;;;;;37.34;14.09;93874.52;826349;71;32760;-78
2021/08/02 15:32:03;;;;;;;22.10;19.80;;;;;;;36.95;13.93;93849.33;815505;71;34293;-75
2021/08/02 15:46:57;;;;;;;29.73;26.63;;;;;;;36.58;14.06;93864.17;817142;71;29868;-79
2021/08/02 16:01:56;;;;;;;38.37;34.87;;;;;;;36.22;14.69;93874.25;810136;71;29497;-76
2021/08/02 16:16:56;;;;;;;32.77;29.40;;;;;;;35.84;15.03;93883.95;817529;71;30004;-77
2021/08/02 16:31:59;;;;;;;19.83;17.43;;;;;;;35.42;15.49;93891.63;827436;71;32757;-76
2021/08/02 16:47:05;;;;;;;18.40;16.53;;;;;;;34.99;15.64;93899.11;834045;71;29620;-78
2021/08/02 17:01:58;;;;;;;17.57;15.90;;;;;;;34.59;16.17;93911.63;825261;71;32714;-76
2021/08/02 17:17:08;;;;;;;17.07;15.20;;;;;;;33.98;16.89;93902.75;816809;71;29886;-76
2021/08/02 17:31:59;;;;;;;15.47;9.53;;;;;;;33.53;17.53;93919.18;810380;71;32048;-77
2021/08/02 17:46:58;;;;;;;15.33;7.80;;;;;;;33.05;18.06;93927.64;816364;71;29988;-76
2021/08/02 18:01:59;;;;;;;13.73;8.63;;;;;;;32.56;19.13;93941.13;809497;71;30249;-78
2021/08/02 18:16:46;;;;;;;11.73;7.80;;;;;;;32.11;19.66;93964.78;812842;71;30776;-75
2021/08/02 18:31:48;;;;;;;10.00;7.73;;;;;;;31.77;19.74;93992.64;807604;71;30972;-75
2021/08/02 18:46:58;;;;;;;12.50;9.40;;;;;;;31.43;20.53;94027.38;827505;71;32973;-77
2021/08/02 19:01:58;;;;;;;12.43;9.83;;;;;;;31.07;22.14;94050.11;827627;71;33038;-76
2021/08/02 19:17:01;;;;;;;17.90;14.13;;;;;;;30.72;22.38;94068.11;827335;71;32686;-74
2021/08/02 19:31:40;;;;;;;20.10;14.23;;;;;;;30.48;23.01;94086.53;828979;71;29720;-76
2021/08/02 19:46:53;;;;;;;10.40;9.23;;;;;;;30.12;27.63;94109.05;829375;71;33208;-76
2021/08/02 20:01:45;;;;;;;12.10;8.60;;;;;;;29.62;35.03;94148.77;813390;71;30974;-77
2021/08/02 20:16:46;;;;;;;8.47;7.70;;;;;;;29.21;37.96;94196.55;814783;71;30394;-74
2021/08/02 20:32:15;;;;;;;8.43;7.50;;;;;;;28.99;40.79;94238.77;766347;76;33062;-75
2021/08/02 20:46:50;;;;;;;8.17;7.33;;;;;;;28.72;43.11;94255.81;828477;71;30264;-75
2021/08/02 21:02:16;;;;;;;11.50;7.80;;;;;;;28.50;46.41;94275.63;827421;71;32191;-76
2021/08/02 21:17:02;;;;;;;8.73;7.80;;;;;;;28.43;47.62;94283.83;828333;71;28742;-76
2021/08/02 21:32:04;;;;;;;7.87;7.17;;;;;;;28.25;48.98;94300.27;833715;71;32252;-74
2021/08/02 21:46:56;;;;;;;9.70;7.40;;;;;;;27.97;50.10;94321.63;828342;71;28196;-75
2021/08/02 22:01:54;;;;;;;7.63;6.87;;;;;;;;;;834003;71;28675;-74
2021/08/02 22:16:54;;;;;;;7.53;6.83;;;;;;;27.73;50.90;94351.73;828293;71;28763;-75
2021/08/02 22:31:59;;;;;;;9.93;8.20;;;;;;;27.62;50.49;94368.02;827810;71;32235;-76
2021/08/02 22:46:54;;;;;;;10.67;6.60;;;;;;;27.62;50.25;94343.76;834609;71;28236;-73
2021/08/02 23:01:55;;;;;;;10.27;7.40;;;;;;;;;;833979;71;31206;-74
2021/08/02 23:16:49;;;;;;;10.90;7.60;;;;;;;;;;828345;71;28618;-74
2021/08/02 23:17:52;;;;;;;10.93;7.93;;;;;;;;;;808722;73;25693;-75
2021/08/02 23:31:53;;;;;;;9.73;7.13;;;;;;;27.61;50.44;94375.16;825303;71;28670;-76
2021/08/02 23:47:09;;;;;;;8.13;7.37;;;;;;;;;;828438;71;28744;-75
